首页
METAR-TAF:

METAR-TAF

机场 :

Craig, 科羅拉多州, 美国

纬度: 40-29-36N, 经度: 107-31-25W, 海拔: 1888米

当前天气观测

该预报发布于46分钟前的23:53 UTC
风速3节,风向西
温度 -1°C
湿度 64%
气压 1018 hPa
能見度: 16.1公里
阴天层高于4900英尺

METAR: KCAG 092353Z AUTO 27003KT 10SM OVC049 M01/M07 A3006 RMK AO2 SLP206 60000 T10111067 10017 21017 51010

时间: 17:39 (00:39 UTC)


TAF: 丢失

超过4000个机场的气象观测和天气预报(METAR&TAF报告)。

可查询的气象台以黄色和红色小点在地图上表示。

将鼠标移到小点上方,可查看气象台名称。

然后点击查看天气观测和预报。

如需切换地图:点击带黑十字的绿色按钮放大地图;点击带横线的绿色按钮缩小地图;或者点击绿色箭头查看邻近地区的地图。


METAR-TAF: